METAR AND TAF INFORMATION
METAR FOR SBRP
ADDS - METARS form results

(1409 UTC 22 April 2018)
Data provider http://aviationweather.gov/adds/metars/
 
METAR text: SBRP 221400Z 08007KT CAVOK 27/16 Q1018
Conditions at: SBRP (LEITE LOPES/RIBE, BR) observed 1400 UTC 22 April 2018
Temperature: 27.0°C (81°F)
Dewpoint: 16.0°C (61°F) [RH = 51%]
Pressure (altimeter): 30.06 inches Hg (1018.0 mb)
Winds: from the E (80 degrees) at 8 MPH (7 knots; 3.6 m/s)
Visibility: 6 or more miles (10+ km)
Ceiling: ceiling and visibility are OK
Clouds: unknown
Weather: no significant weather observed at this time

Forecast for: SBRP (LEITE LOPES/RIBE, BR)
Text: TAF SBRP 221022Z 2212/2312 12005KT CAVOK TX29/2218Z TN15/2309Z
Forecast period: 1200 to 1400 UTC 22 April 2018
Forecast type: FROM: standard forecast or significant change
Winds: from the ESE (120 degrees) at 6 MPH (5 knots; 2.6 m/s)
Visibility: 6 or more miles (10+ km)
Clouds: not forecast
Weather: no significant weather forecast for this period
Forecast for: SBRP (LEITE LOPES/RIBE, BR)
Text: TAF SBRP 221022Z 2212/2312 12005KT CAVOK TX29/2218Z TN15/2309Z
Forecast period: 1200 to 1400 UTC 22 April 2018
Forecast type: FROM: standard forecast or significant change
Winds: from the ESE (120 degrees) at 6 MPH (5 knots; 2.6 m/s)
Visibility: 6 or more miles (10+ km)
Clouds: not forecast
Weather: no significant weather forecast for this period
Forecast for: SBRP (LEITE LOPES/RIBE, BR)
Text: TAF SBRP 221022Z 2212/2312 12005KT CAVOK TX29/2218Z TN15/2309Z
Forecast period: 1400 to 1800 UTC 22 April 2018
Forecast type: BECOMING: Conditions expected to become as follows by 1600 UTC 22 April 2018
Winds: from the ENE (70 degrees) at 6 MPH (5 knots; 2.6 m/s)
Visibility: 6 or more miles (10+ km)
Clouds: few clouds at 4500 feet AGL
Weather: no significant weather forecast for this period
Forecast for: SBRP (LEITE LOPES/RIBE, BR)
Text: TAF SBRP 221022Z 2212/2312 12005KT CAVOK TX29/2218Z TN15/2309Z
Forecast period: 1400 to 1800 UTC 22 April 2018
Forecast type: BECOMING: Conditions expected to become as follows by 1600 UTC 22 April 2018
Winds: from the ENE (70 degrees) at 6 MPH (5 knots; 2.6 m/s)
Visibility: 6 or more miles (10+ km)
Clouds: few clouds at 4500 feet AGL
Weather: no significant weather forecast for this period
Forecast for: SBRP (LEITE LOPES/RIBE, BR)
Text: TAF SBRP 221022Z 2212/2312 12005KT CAVOK TX29/2218Z TN15/2309Z
Forecast period: 1800 to 2200 UTC 22 April 2018
Forecast type: BECOMING: Conditions expected to become as follows by 2000 UTC 22 April 2018
Winds: from the S (180 degrees) at 6 MPH (5 knots; 2.6 m/s)
Visibility: 6 or more miles (10+ km)
Weather: NSW  (no significant weather)
Forecast for: SBRP (LEITE LOPES/RIBE, BR)
Text: TAF SBRP 221022Z 2212/2312 12005KT CAVOK TX29/2218Z TN15/2309Z
Forecast period: 1800 to 2200 UTC 22 April 2018
Forecast type: BECOMING: Conditions expected to become as follows by 2000 UTC 22 April 2018
Winds: from the S (180 degrees) at 6 MPH (5 knots; 2.6 m/s)
Visibility: 6 or more miles (10+ km)
Weather: NSW  (no significant weather)
Forecast for: SBRP (LEITE LOPES/RIBE, BR)
Text: TAF SBRP 221022Z 2212/2312 12005KT CAVOK TX29/2218Z TN15/2309Z
Forecast period: 2200 UTC 22 April 2018 to 0100 UTC 23 April 2018
Forecast type: BECOMING: Conditions expected to become as follows by 0000 UTC 23 April 2018
Winds: from the SE (140 degrees) at 6 MPH (5 knots; 2.6 m/s)
Visibility: 6 or more miles (10+ km)
Weather: NSW  (no significant weather)
Forecast for: SBRP (LEITE LOPES/RIBE, BR)
Text: TAF SBRP 221022Z 2212/2312 12005KT CAVOK TX29/2218Z TN15/2309Z
Forecast period: 2200 UTC 22 April 2018 to 0100 UTC 23 April 2018
Forecast type: BECOMING: Conditions expected to become as follows by 0000 UTC 23 April 2018
Winds: from the SE (140 degrees) at 6 MPH (5 knots; 2.6 m/s)
Visibility: 6 or more miles (10+ km)
Weather: NSW  (no significant weather)
Forecast for: SBRP (LEITE LOPES/RIBE, BR)
Text: TAF SBRP 221022Z 2212/2312 12005KT CAVOK TX29/2218Z TN15/2309Z
Forecast period: 0100 to 1200 UTC 23 April 2018
Forecast type: BECOMING: Conditions expected to become as follows by 0300 UTC 23 April 2018
Winds: from the E (100 degrees) at 6 MPH (5 knots; 2.6 m/s)
Visibility: 6 or more miles (10+ km)
Weather: NSW  (no significant weather)
Forecast for: SBRP (LEITE LOPES/RIBE, BR)
Text: TAF SBRP 221022Z 2212/2312 12005KT CAVOK TX29/2218Z TN15/2309Z
Forecast period: 0100 to 1200 UTC 23 April 2018
Forecast type: BECOMING: Conditions expected to become as follows by 0300 UTC 23 April 2018
Winds: from the E (100 degrees) at 6 MPH (5 knots; 2.6 m/s)
Visibility: 6 or more miles (10+ km)
Weather: NSW  (no significant weather)

 AIRPORT MAP

 RUNWAY INFORMATION
Runway 18 Runway length 6890 ft Runway width 148 ft
Runway elevation 0 ft Runway displaced threshold 0 ft Runway heading 0
Runway 36 Runway length 6890 ft Runway width 148 ft
Runway elevation 0 ft Runway displaced threshold 0 ft Runway heading 0

 AIRPORT FREQUENCIES
Type AFIS Name RIBEIRAO R Frequency 118 MHZ
Type APP Name RIBEIRAO A Frequency 119.55 MHZ
Type ATIS Name ATIS Frequency 127.425 MHZ
Type TWR Name RIBEIRAO T Frequency 118 MHZ

 AIRPORT NEAR NAVIGATION AIDS
Type NDB Name Ribeirao Frequency 330 KHZ



Powered by Virtual Airlines Manager [v2.6.2]